Time;durP1;ratioP1;P1;durP2;ratioP2;P2;SDS_P1;SDS_P2;PMS_P1;PMS_P2;Temp;Humidity;BMP_temperature;BMP_pressure;BME280_temperature;BME280_humidity;BME280_pressure;Samples;Min_cycle;Max_cycle;Signal;HPM_P1;HPM_P2
2022/03/31 00:00:38;;;;;;;3.30;0.95;;;4.60;99.90;;;;;;5009478;28;20185;-54
2022/03/31 00:03:06;;;;;;;3.92;1.20;;;4.50;99.90;;;;;;4997447;28;20049;-53
2022/03/31 00:05:32;;;;;;;3.70;0.70;;;4.50;99.90;;;;;;4999065;28;20030;-52
2022/03/31 00:08:01;;;;;;;3.72;0.68;;;4.50;99.90;;;;;;5010742;28;20111;-52
2022/03/31 00:10:31;;;;;;;4.03;0.93;;;4.50;99.90;;;;;;4994435;28;20077;-51
2022/03/31 00:12:58;;;;;;;4.57;1.00;;;4.50;99.90;;;;;;5004908;28;20116;-52
2022/03/31 00:15:26;;;;;;;1.52;0.68;;;4.50;99.90;;;;;;4999004;28;20034;-53
2022/03/31 00:17:52;;;;;;;4.30;0.70;;;4.50;99.90;;;;;;5011384;28;20546;-54
2022/03/31 00:33:46;;;;;;;3.67;0.80;;;4.40;99.90;;;;;;4993731;28;20043;-50
2022/03/31 00:36:12;;;;;;;2.70;0.77;;;4.40;99.90;;;;;;5008272;28;20033;-54
2022/03/31 00:38:38;;;;;;;3.53;0.60;;;4.40;99.90;;;;;;5006624;28;20109;-52
2022/03/31 00:41:04;;;;;;;3.10;1.37;;;4.40;99.90;;;;;;4997675;28;20113;-51
2022/03/31 00:43:29;;;;;;;4.82;0.88;;;4.40;99.90;;;;;;5002889;28;20629;-52
2022/03/31 00:45:56;;;;;;;4.50;0.90;;;4.30;99.90;;;;;;4993731;28;20038;-54
2022/03/31 00:48:23;;;;;;;5.40;0.82;;;4.30;99.90;;;;;;4996707;28;20037;-52
2022/03/31 00:50:48;;;;;;;5.05;1.38;;;4.30;99.90;;;;;;5012334;28;20460;-54
2022/03/31 00:53:15;;;;;;;7.25;0.80;;;4.30;99.90;;;;;;5011021;28;20133;-54
2022/03/31 00:55:44;;;;;;;2.72;0.77;;;4.30;99.90;;;;;;5010133;28;20037;-53
2022/03/31 00:58:10;;;;;;;1.67;0.68;;;4.30;99.90;;;;;;5003706;28;20428;-54
2022/03/31 01:00:36;;;;;;;4.38;1.15;;;4.30;99.90;;;;;;5003435;28;20045;-51
2022/03/31 01:03:03;;;;;;;2.75;0.77;;;4.30;99.90;;;;;;4994324;28;20214;-54
2022/03/31 01:05:28;;;;;;;5.03;0.95;;;4.20;99.90;;;;;;4992838;28;20035;-54
2022/03/31 01:07:55;;;;;;;5.87;0.80;;;4.20;99.90;;;;;;4999589;28;20092;-51
2022/03/31 01:10:21;;;;;;;7.22;1.88;;;4.20;99.90;;;;;;5008992;28;20065;-54
2022/03/31 01:12:47;;;;;;;1.58;0.63;;;4.10;99.90;;;;;;4992373;28;20496;-52
2022/03/31 01:15:20;;;;;;;5.37;0.50;;;4.10;99.90;;;;;;4992935;28;20042;-51
2022/03/31 01:17:47;;;;;;;4.07;0.47;;;4.00;99.90;;;;;;4999483;28;20371;-54
2022/03/31 01:20:16;;;;;;;2.33;0.57;;;3.90;99.90;;;;;;5002574;28;20548;-52
2022/03/31 01:22:43;;;;;;;3.53;0.75;;;3.90;99.90;;;;;;5009912;28;20046;-54
2022/03/31 01:25:10;;;;;;;4.28;0.63;;;3.80;99.90;;;;;;5010114;28;20044;-53
2022/03/31 01:27:38;;;;;;;3.08;0.50;;;3.80;99.90;;;;;;5006770;28;20037;-52
2022/03/31 01:30:09;;;;;;;1.23;0.40;;;3.80;99.90;;;;;;5009083;28;20030;-50
2022/03/31 01:32:35;;;;;;;2.15;0.40;;;3.70;99.90;;;;;;4992833;28;20455;-50
2022/03/31 01:35:02;;;;;;;1.65;0.60;;;3.70;99.90;;;;;;5003431;28;20436;-54
2022/03/31 01:37:28;;;;;;;5.28;1.15;;;3.70;99.90;;;;;;4994940;28;20042;-51
2022/03/31 01:39:53;;;;;;;3.17;0.60;;;3.70;99.90;;;;;;5001962;28;20046;-52
2022/03/31 01:42:19;;;;;;;4.23;0.90;;;3.70;99.90;;;;;;5011382;28;20038;-55
2022/03/31 01:44:45;;;;;;;3.03;0.60;;;3.70;99.90;;;;;;5007271;28;20816;-50
2022/03/31 01:47:11;;;;;;;1.10;0.80;;;3.60;99.90;;;;;;5009721;28;20046;-54
2022/03/31 01:49:37;;;;;;;8.27;1.95;;;3.60;99.90;;;;;;4998222;28;20500;-50
2022/03/31 01:52:03;;;;;;;;;;;3.60;99.90;;;;;;4999768;28;20038;-52
2022/03/31 01:54:30;;;;;;;2.28;0.68;;;3.60;99.90;;;;;;5009664;28;20413;-54
2022/03/31 01:56:56;;;;;;;;;;;3.60;99.90;;;;;;5002161;28;20360;-50
2022/03/31 01:59:22;;;;;;;1.70;0.55;;;3.60;99.90;;;;;;5003777;28;19924;-52
2022/03/31 02:01:48;;;;;;;2.65;0.73;;;3.50;99.90;;;;;;4994144;28;20042;-50
2022/03/31 02:04:15;;;;;;;3.65;0.82;;;3.50;99.90;;;;;;4994398;28;20042;-54
2022/03/31 02:06:41;;;;;;;2.33;0.70;;;3.50;99.90;;;;;;5006580;28;20565;-53
2022/03/31 02:09:07;;;;;;;2.47;0.65;;;3.50;99.90;;;;;;4992560;28;20038;-55
2022/03/31 02:11:33;;;;;;;3.67;0.70;;;3.50;99.90;;;;;;4992832;28;20034;-55
2022/03/31 02:13:59;;;;;;;4.45;1.00;;;3.40;99.90;;;;;;5006920;28;20046;-52
2022/03/31 02:16:24;;;;;;;3.15;0.93;;;3.40;99.90;;;;;;5004352;28;20580;-52
2022/03/31 02:18:50;;;;;;;3.30;1.00;;;3.40;99.90;;;;;;4992516;28;20045;-54
2022/03/31 02:21:16;;;;;;;3.10;1.00;;;3.40;99.90;;;;;;5004735;28;20388;-54
2022/03/31 02:23:42;;;;;;;2.78;1.15;;;3.30;99.90;;;;;;5004797;28;20491;-54
2022/03/31 02:26:07;;;;;;;4.78;2.10;;;3.30;99.90;;;;;;4991032;28;20510;-50
2022/03/31 02:28:33;;;;;;;3.73;1.63;;;3.30;99.90;;;;;;4992994;28;20039;-52
2022/03/31 02:30:59;;;;;;;3.90;1.67;;;3.30;99.90;;;;;;4995103;28;20060;-53
2022/03/31 02:33:24;;;;;;;2.30;1.63;;;3.30;99.90;;;;;;5009161;28;20288;-53
2022/03/31 02:35:50;;;;;;;5.87;2.57;;;3.20;99.90;;;;;;4996222;28;20138;-50
2022/03/31 02:38:16;;;;;;;5.45;2.08;;;3.20;99.90;;;;;;4994669;28;20052;-49
2022/03/31 02:40:42;;;;;;;4.47;2.40;;;3.20;99.90;;;;;;5010169;28;20045;-54
2022/03/31 02:43:08;;;;;;;5.80;2.63;;;3.20;99.90;;;;;;4997827;28;20046;-53
2022/03/31 02:45:33;;;;;;;4.72;2.75;;;3.20;99.90;;;;;;4991470;28;20066;-52
2022/03/31 02:47:59;;;;;;;6.60;3.60;;;3.20;99.90;;;;;;4991969;28;20088;-49
2022/03/31 02:50:25;;;;;;;5.77;2.87;;;3.20;99.90;;;;;;5005851;28;20034;-50
2022/03/31 02:55:34;;;;;;;8.38;3.63;;;3.30;99.90;;;;;;5007297;28;20407;-51
2022/03/31 02:58:03;;;;;;;6.60;4.40;;;3.30;99.90;;;;;;4998186;28;20042;-50
2022/03/31 03:00:32;;;;;;;5.10;4.45;;;3.20;99.90;;;;;;4993883;28;20504;-52
2022/03/31 03:02:58;;;;;;;6.28;5.28;;;3.30;99.90;;;;;;4992079;28;20117;-51
2022/03/31 03:05:24;;;;;;;5.72;4.43;;;3.30;99.90;;;;;;4991689;28;20044;-51
2022/03/31 03:07:49;;;;;;;6.80;4.20;;;3.30;99.90;;;;;;5006954;28;20038;-50
2022/03/31 03:10:15;;;;;;;3.40;3.13;;;3.30;99.90;;;;;;4991779;28;20034;-49
2022/03/31 03:12:41;;;;;;;4.45;3.42;;;3.30;99.90;;;;;;5002272;28;20042;-51
2022/03/31 03:15:09;;;;;;;6.18;4.18;;;3.40;99.90;;;;;;4992360;28;20478;-52
2022/03/31 03:17:39;;;;;;;3.97;3.50;;;3.40;99.90;;;;;;5004736;28;20045;-52
2022/03/31 03:20:06;;;;;;;4.75;3.13;;;3.40;99.90;;;;;;5005280;28;20523;-50
2022/03/31 03:22:32;;;;;;;;;;;3.40;99.90;;;;;;4998827;28;20542;-50
2022/03/31 03:24:57;;;;;;;3.97;3.53;;;3.40;99.90;;;;;;4996211;28;19925;-49
2022/03/31 03:27:23;;;;;;;6.40;3.80;;;3.40;99.90;;;;;;4994093;28;20034;-50
2022/03/31 03:29:49;;;;;;;6.23;3.93;;;3.50;99.90;;;;;;5010141;28;20555;-50
2022/03/31 03:32:16;;;;;;;5.07;3.57;;;3.40;99.90;;;;;;4991785;28;20042;-50
2022/03/31 03:34:42;;;;;;;5.72;3.97;;;3.50;99.90;;;;;;4996854;28;20038;-50
2022/03/31 03:37:07;;;;;;;5.70;4.10;;;3.40;99.90;;;;;;5011896;28;20068;-52
2022/03/31 03:39:34;;;;;;;4.95;4.40;;;3.50;99.90;;;;;;4997382;28;20038;-51
2022/03/31 03:42:01;;;;;;;4.72;3.88;;;3.50;99.90;;;;;;4998812;28;20049;-50
2022/03/31 03:44:26;;;;;;;7.15;4.85;;;3.50;99.90;;;;;;5013664;28;20403;-52
2022/03/31 03:46:52;;;;;;;5.57;5.03;;;3.50;99.90;;;;;;5001785;28;20034;-51
2022/03/31 03:49:18;;;;;;;8.37;7.30;;;3.50;99.90;;;;;;5001579;28;20058;-50
2022/03/31 03:51:44;;;;;;;5.45;4.95;;;3.50;99.90;;;;;;5013359;28;20281;-52
2022/03/31 03:54:11;;;;;;;5.45;4.68;;;3.50;99.90;;;;;;4995123;28;20076;-53
2022/03/31 03:56:37;;;;;;;5.60;5.05;;;3.50;99.90;;;;;;5006190;28;20034;-50
2022/03/31 03:59:04;;;;;;;5.25;4.65;;;3.50;99.90;;;;;;5006296;28;20122;-52
2022/03/31 04:01:30;;;;;;;;;;;3.50;99.90;;;;;;4994457;28;20448;-51
2022/03/31 04:03:55;;;;;;;6.80;5.45;;;3.50;99.90;;;;;;5011668;28;19921;-50
2022/03/31 04:06:21;;;;;;;7.43;5.27;;;3.50;99.90;;;;;;4998183;28;20113;-51
2022/03/31 04:08:46;;;;;;;8.13;6.07;;;3.50;99.90;;;;;;4997749;28;20038;-50
2022/03/31 04:11:12;;;;;;;6.50;5.40;;;3.50;99.90;;;;;;5011568;28;20624;-51
2022/03/31 04:13:37;;;;;;;9.17;5.37;;;3.50;99.90;;;;;;5011417;28;20068;-53
2022/03/31 04:16:03;;;;;;;7.17;5.20;;;3.50;99.90;;;;;;5007804;28;20137;-54
2022/03/31 04:18:29;;;;;;;6.78;5.75;;;3.50;99.90;;;;;;5007112;28;20084;-50
2022/03/31 04:20:55;;;;;;;7.73;5.17;;;3.60;99.90;;;;;;5011522;28;20041;-51
2022/03/31 04:23:21;;;;;;;9.50;6.32;;;3.60;99.90;;;;;;4996124;28;20447;-51
2022/03/31 04:25:47;;;;;;;6.10;5.50;;;3.60;99.90;;;;;;4994329;28;20046;-51
2022/03/31 04:28:13;;;;;;;8.90;6.05;;;3.60;99.90;;;;;;4995528;28;20387;-53
2022/03/31 04:30:39;;;;;;;6.43;5.82;;;3.60;99.90;;;;;;4999698;28;20087;-51
2022/03/31 04:33:04;;;;;;;9.38;6.85;;;3.60;99.90;;;;;;5012726;28;20454;-51
2022/03/31 04:35:30;;;;;;;8.00;6.70;;;3.60;99.90;;;;;;4995515;28;20095;-49
2022/03/31 04:37:55;;;;;;;7.63;6.07;;;3.60;99.90;;;;;;5002466;28;20346;-50
2022/03/31 04:40:21;;;;;;;6.67;6.00;;;3.60;99.90;;;;;;5004953;28;20054;-50
2022/03/31 04:42:47;;;;;;;8.00;6.20;;;3.60;99.90;;;;;;4993297;28;20121;-50
2022/03/31 04:45:12;;;;;;;9.27;6.93;;;3.60;99.90;;;;;;5006182;28;20495;-52
2022/03/31 04:47:38;;;;;;;7.50;6.77;;;3.60;99.90;;;;;;5002285;28;20289;-49
2022/03/31 04:50:04;;;;;;;7.47;6.53;;;3.60;99.90;;;;;;4999782;28;20269;-51
2022/03/31 04:52:30;;;;;;;7.30;5.80;;;3.60;99.90;;;;;;5007753;28;20128;-50
2022/03/31 04:54:55;;;;;;;8.10;7.30;;;3.60;99.90;;;;;;4993258;28;20038;-51
2022/03/31 04:57:21;;;;;;;9.17;7.23;;;3.60;99.90;;;;;;5009487;28;20165;-52
2022/03/31 04:59:47;;;;;;;11.38;7.43;;;3.60;99.90;;;;;;4994355;28;20038;-51
2022/03/31 05:02:13;;;;;;;7.53;6.78;;;3.60;99.90;;;;;;4993256;28;20052;-50
2022/03/31 05:04:39;;;;;;;9.20;7.00;;;3.60;99.90;;;;;;5002762;28;20026;-50
2022/03/31 05:07:05;;;;;;;7.93;6.88;;;3.60;99.90;;;;;;5002349;28;20630;-50
2022/03/31 05:09:31;;;;;;;9.25;8.00;;;3.60;99.90;;;;;;4992337;28;20042;-50
2022/03/31 05:11:57;;;;;;;8.80;7.90;;;3.60;99.90;;;;;;5010585;28;20056;-50
2022/03/31 05:14:23;;;;;;;8.35;7.55;;;3.60;99.90;;;;;;4994634;28;20078;-51
2022/03/31 05:16:49;;;;;;;9.23;8.30;;;3.60;99.90;;;;;;5000334;28;20034;-49
2022/03/31 05:19:14;;;;;;;10.48;7.68;;;3.60;99.90;;;;;;5010666;28;20399;-49
2022/03/31 05:21:40;;;;;;;9.53;8.27;;;3.60;99.90;;;;;;5002410;28;20038;-51
2022/03/31 05:24:06;;;;;;;10.77;8.47;;;3.60;99.90;;;;;;4995792;28;20442;-50
2022/03/31 05:26:31;;;;;;;8.55;7.65;;;3.50;99.90;;;;;;5005437;28;20499;-50
2022/03/31 05:28:57;;;;;;;8.97;8.07;;;3.50;99.90;;;;;;5003425;28;20387;-49
2022/03/31 05:31:23;;;;;;;14.00;8.07;;;3.50;99.90;;;;;;5006693;28;20457;-50
2022/03/31 05:33:48;;;;;;;9.33;7.87;;;3.60;99.90;;;;;;5003558;28;20041;-50
2022/03/31 05:36:14;;;;;;;9.03;8.20;;;3.50;99.90;;;;;;5008485;28;20298;-50
2022/03/31 05:38:39;;;;;;;8.83;7.17;;;3.50;99.90;;;;;;4993786;28;20038;-49
2022/03/31 05:41:05;;;;;;;12.37;8.57;;;3.50;99.90;;;;;;5010782;28;20404;-52
2022/03/31 05:43:31;;;;;;;10.73;8.00;;;3.50;99.90;;;;;;4991980;28;20042;-51
2022/03/31 05:45:56;;;;;;;21.80;7.47;;;3.50;99.90;;;;;;4991765;28;20512;-50
2022/03/31 05:48:22;;;;;;;7.37;6.67;;;3.50;99.90;;;;;;5009929;28;20491;-50
2022/03/31 05:50:47;;;;;;;11.00;7.53;;;3.50;99.90;;;;;;5009423;28;20029;-51
2022/03/31 05:53:13;;;;;;;7.63;6.93;;;3.50;99.90;;;;;;5010996;28;20392;-51
2022/03/31 05:55:40;;;;;;;8.70;7.82;;;3.50;99.90;;;;;;4995631;28;20048;-51
2022/03/31 05:58:07;;;;;;;6.90;5.72;;;3.50;99.90;;;;;;4996569;28;20038;-51
2022/03/31 06:00:32;;;;;;;9.07;8.15;;;3.60;99.90;;;;;;4991400;28;20078;-48
2022/03/31 06:02:58;;;;;;;7.70;6.77;;;3.60;99.90;;;;;;4991718;28;20078;-49
2022/03/31 06:05:24;;;;;;;9.10;7.20;;;3.60;99.90;;;;;;5002525;28;20042;-50
2022/03/31 06:07:52;;;;;;;8.27;7.45;;;3.60;99.90;;;;;;5010621;28;20049;-50
2022/03/31 06:10:18;;;;;;;8.10;7.30;;;3.60;99.90;;;;;;5009391;28;20104;-50
2022/03/31 06:12:44;;;;;;;7.70;7.00;;;3.70;99.90;;;;;;5001480;28;20511;-51
2022/03/31 06:15:10;;;;;;;6.57;6.00;;;3.70;99.90;;;;;;4993316;28;20092;-50
2022/03/31 06:17:39;;;;;;;8.45;6.05;;;3.70;99.90;;;;;;4991334;28;20050;-52
2022/03/31 06:20:06;;;;;;;8.15;7.38;;;3.70;99.90;;;;;;4992251;28;20121;-49
2022/03/31 06:22:31;;;;;;;7.72;6.85;;;3.70;99.90;;;;;;4993202;28;20050;-50
2022/03/31 06:24:57;;;;;;;9.77;7.70;;;3.70;99.90;;;;;;5005361;28;20044;-49
2022/03/31 06:27:22;;;;;;;7.93;7.27;;;3.70;99.90;;;;;;5010388;28;20619;-50
2022/03/31 06:29:49;;;;;;;8.60;7.37;;;3.70;99.90;;;;;;5006153;28;20404;-50
2022/03/31 06:32:15;;;;;;;7.82;7.10;;;3.70;99.90;;;;;;4991258;28;20059;-50
2022/03/31 06:34:41;;;;;;;8.15;7.40;;;3.70;99.90;;;;;;5001986;28;20121;-49
2022/03/31 06:37:08;;;;;;;8.10;7.30;;;3.70;99.90;;;;;;4996153;28;20042;-49
2022/03/31 06:39:34;;;;;;;9.63;7.40;;;3.70;99.90;;;;;;4991388;28;20495;-49
2022/03/31 06:42:00;;;;;;;8.83;7.90;;;3.70;99.90;;;;;;5011064;28;20046;-48
2022/03/31 06:44:26;;;;;;;9.10;8.25;;;3.70;99.90;;;;;;5000492;28;20034;-50
2022/03/31 06:46:51;;;;;;;11.13;8.17;;;3.70;99.90;;;;;;4991748;28;20079;-50
2022/03/31 06:49:18;;;;;;;9.13;8.30;;;3.70;99.90;;;;;;4990515;28;20039;-51
2022/03/31 06:51:44;;;;;;;8.55;7.75;;;3.70;99.90;;;;;;4992211;28;20057;-51
2022/03/31 06:54:10;;;;;;;9.33;8.43;;;3.70;99.90;;;;;;4992195;28;20046;-49
2022/03/31 06:56:36;;;;;;;9.77;8.77;;;3.80;99.90;;;;;;4990695;28;20407;-49
2022/03/31 06:59:02;;;;;;;8.98;8.18;;;3.80;99.90;;;;;;4993708;28;20044;-49
2022/03/31 07:01:28;;;;;;;8.75;7.85;;;3.80;99.90;;;;;;5002673;28;20043;-50
2022/03/31 07:03:54;;;;;;;10.30;9.30;;;3.80;99.90;;;;;;5000856;28;20046;-50
2022/03/31 07:06:21;;;;;;;9.63;8.65;;;3.80;99.90;;;;;;5005102;28;20065;-49
2022/03/31 07:08:47;;;;;;;10.35;9.35;;;3.90;99.90;;;;;;4997057;28;20496;-51
2022/03/31 07:11:13;;;;;;;9.27;8.48;;;3.90;99.90;;;;;;5009691;28;20122;-50
2022/03/31 07:13:39;;;;;;;9.93;8.93;;;3.90;99.90;;;;;;5006583;28;20638;-49
2022/03/31 07:16:06;;;;;;;10.77;9.70;;;4.00;99.90;;;;;;5014582;28;20053;-50
2022/03/31 07:18:32;;;;;;;9.52;8.55;;;4.00;99.90;;;;;;4998189;28;20042;-49
2022/03/31 07:20:57;;;;;;;11.23;10.20;;;4.00;99.90;;;;;;4996912;28;20125;-49
2022/03/31 07:23:25;;;;;;;9.77;8.87;;;4.00;99.90;;;;;;4997273;28;20034;-50
2022/03/31 07:25:57;;;;;;;10.55;9.55;;;4.00;99.90;;;;;;4997130;28;20035;-48
2022/03/31 07:28:23;;;;;;;11.43;9.77;;;4.00;99.90;;;;;;4996962;28;20038;-50
2022/03/31 07:30:50;;;;;;;10.05;9.02;;;4.00;99.90;;;;;;4997101;28;20125;-49
2022/03/31 07:33:19;;;;;;;10.93;9.80;;;4.00;99.90;;;;;;4996595;28;20045;-49
2022/03/31 07:35:47;;;;;;;12.30;10.18;;;4.00;99.90;;;;;;4996527;28;20496;-50
2022/03/31 07:38:13;;;;;;;10.80;9.68;;;4.00;99.90;;;;;;4996985;28;20053;-50
2022/03/31 07:40:40;;;;;;;11.98;9.90;;;4.00;99.90;;;;;;4997113;28;20038;-49
2022/03/31 07:43:06;;;;;;;11.57;10.38;;;4.00;99.90;;;;;;4997272;28;20046;-50
2022/03/31 07:45:36;;;;;;;11.50;10.30;;;4.00;99.90;;;;;;4996935;28;20061;-50
2022/03/31 07:48:06;;;;;;;12.70;11.23;;;4.00;99.90;;;;;;4996922;28;20129;-49
2022/03/31 07:50:33;;;;;;;12.30;10.55;;;4.00;99.90;;;;;;4997102;28;20056;-49
2022/03/31 07:52:58;;;;;;;11.95;10.75;;;4.00;99.90;;;;;;4996843;28;20414;-50
2022/03/31 07:55:24;;;;;;;13.00;11.60;;;4.00;99.90;;;;;;4996795;28;20121;-51
2022/03/31 07:57:51;;;;;;;16.10;11.88;;;4.00;99.90;;;;;;4996685;28;20046;-49
2022/03/31 08:00:18;;;;;;;12.95;11.27;;;4.10;99.90;;;;;;4996949;28;20130;-49
2022/03/31 08:02:46;;;;;;;14.18;11.88;;;4.10;99.90;;;;;;4996822;28;20049;-50
2022/03/31 08:05:15;;;;;;;17.30;13.63;;;4.10;99.90;;;;;;4996619;28;20042;-50
2022/03/31 08:07:41;;;;;;;15.02;12.80;;;4.10;99.90;;;;;;4996925;28;20428;-50
2022/03/31 08:10:08;;;;;;;16.77;13.80;;;4.10;99.90;;;;;;4996863;28;20181;-50
2022/03/31 08:12:36;;;;;;;16.80;13.27;;;4.20;99.90;;;;;;4996779;28;20053;-49
2022/03/31 08:15:05;;;;;;;19.67;13.85;;;4.20;99.90;;;;;;4996192;28;20101;-50
2022/03/31 08:17:31;;;;;;;18.35;13.55;;;4.20;99.90;;;;;;4996758;28;20034;-49
2022/03/31 08:19:57;;;;;;;18.13;14.00;;;4.20;99.90;;;;;;4996581;28;20049;-51
2022/03/31 08:22:23;;;;;;;17.07;14.10;;;4.20;99.90;;;;;;4994594;28;20039;-50
2022/03/31 08:24:50;;;;;;;16.90;14.18;;;4.20;99.90;;;;;;4993560;28;20509;-49
2022/03/31 08:27:15;;;;;;;19.48;14.55;;;4.30;99.90;;;;;;4993240;28;20054;-49
2022/03/31 08:29:42;;;;;;;17.67;14.00;;;4.30;99.90;;;;;;4993616;28;20046;-49
2022/03/31 08:32:08;;;;;;;16.33;13.00;;;4.30;99.90;;;;;;4993788;28;20038;-50
2022/03/31 08:34:34;;;;;;;;;;;4.30;99.90;;;;;;4993953;28;20043;-49
2022/03/31 08:36:59;;;;;;;17.38;13.63;;;4.30;99.90;;;;;;4992111;28;20045;-49
2022/03/31 08:39:25;;;;;;;18.37;12.13;;;4.30;99.90;;;;;;4993380;28;20030;-49
2022/03/31 08:41:50;;;;;;;14.17;12.10;;;4.30;99.90;;;;;;4993334;28;20030;-49
2022/03/31 08:44:20;;;;;;;16.10;13.50;;;4.30;99.90;;;;;;4993522;28;20042;-50
2022/03/31 08:46:48;;;;;;;16.25;13.38;;;4.30;99.90;;;;;;4992966;28;20038;-49
2022/03/31 08:49:13;;;;;;;16.75;12.95;;;4.30;99.90;;;;;;4993098;28;20042;-50
2022/03/31 08:51:39;;;;;;;16.80;13.20;;;4.30;99.90;;;;;;4993243;28;20034;-50
2022/03/31 08:54:05;;;;;;;16.30;12.17;;;4.40;99.90;;;;;;4993064;28;20270;-50
2022/03/31 08:56:35;;;;;;;14.27;12.20;;;4.40;99.90;;;;;;4992358;28;20113;-50
2022/03/31 08:59:00;;;;;;;15.18;12.68;;;4.40;99.90;;;;;;4992971;28;20614;-49
2022/03/31 09:01:27;;;;;;;12.57;11.30;;;4.40;99.90;;;;;;4992921;28;20043;-49
2022/03/31 09:03:53;;;;;;;12.23;10.75;;;4.40;99.90;;;;;;4992703;28;20081;-49
2022/03/31 09:06:28;;;;;;;13.47;11.30;;;4.40;99.90;;;;;;4992489;28;20038;-49
2022/03/31 09:08:59;;;;;;;11.85;10.27;;;4.40;99.90;;;;;;4992325;28;20038;-51
2022/03/31 09:11:33;;;;;;;10.80;9.68;;;4.40;99.90;;;;;;4992966;28;20034;-49
2022/03/31 09:14:00;;;;;;;9.68;8.75;;;4.40;99.90;;;;;;4992623;28;20042;-49
2022/03/31 09:16:38;;;;;;;8.70;7.82;;;4.40;99.90;;;;;;4992404;28;20174;-54
2022/03/31 09:19:11;;;;;;;9.85;8.57;;;4.40;99.90;;;;;;4992796;28;20444;-50
2022/03/31 09:21:57;;;;;;;9.23;8.40;;;4.40;99.90;;;;;;4992200;28;20061;-50
2022/03/31 09:24:24;;;;;;;7.35;6.60;;;4.40;99.90;;;;;;4992440;28;20038;-49
2022/03/31 09:26:51;;;;;;;8.23;7.40;;;4.40;99.90;;;;;;4992452;28;20042;-49
2022/03/31 09:29:19;;;;;;;6.47;5.93;;;4.50;99.90;;;;;;4992330;28;20411;-50
2022/03/31 09:31:46;;;;;;;7.13;6.43;;;4.40;99.90;;;;;;4992125;28;20097;-49
2022/03/31 09:34:13;;;;;;;6.00;5.50;;;4.40;99.90;;;;;;4991698;28;20475;-49
2022/03/31 09:36:43;;;;;;;5.72;5.22;;;4.40;99.90;;;;;;4991856;28;20516;-49
2022/03/31 09:39:13;;;;;;;4.53;4.13;;;4.40;99.90;;;;;;4992440;28;20192;-49
2022/03/31 09:41:41;;;;;;;4.38;4.00;;;4.40;99.90;;;;;;4992160;28;20043;-49
2022/03/31 09:44:12;;;;;;;5.22;4.72;;;4.40;99.90;;;;;;4992007;28;20081;-51
2022/03/31 09:46:39;;;;;;;4.47;4.07;;;4.40;99.90;;;;;;4991297;28;20046;-49
2022/03/31 09:49:15;;;;;;;4.03;3.65;;;4.30;99.90;;;;;;4991926;28;20531;-49
2022/03/31 09:51:46;;;;;;;3.85;3.50;;;4.30;99.90;;;;;;4991913;28;20044;-49
2022/03/31 09:54:12;;;;;;;4.28;3.97;;;4.30;99.90;;;;;;4991976;28;20054;-50
2022/03/31 09:56:39;;;;;;;7.25;3.50;;;4.20;99.90;;;;;;4991410;28;20046;-49
2022/03/31 09:59:07;;;;;;;3.75;3.45;;;4.20;99.90;;;;;;4991329;28;20104;-50
2022/03/31 10:01:34;;;;;;;2.63;2.53;;;4.20;99.90;;;;;;4991975;28;20113;-50
2022/03/31 10:04:02;;;;;;;3.88;2.30;;;4.20;99.90;;;;;;4991774;28;20042;-50
2022/03/31 10:06:28;;;;;;;3.08;2.88;;;4.10;99.90;;;;;;4991233;28;20058;-51
2022/03/31 10:08:57;;;;;;;2.45;2.25;;;4.10;99.90;;;;;;4991663;28;20074;-50
2022/03/31 10:11:24;;;;;;;2.92;2.72;;;4.00;99.90;;;;;;4991266;28;20034;-50
2022/03/31 10:13:52;;;;;;;2.05;1.95;;;4.00;99.90;;;;;;4991734;28;20038;-50
2022/03/31 10:16:29;;;;;;;2.25;2.10;;;4.00;99.90;;;;;;4991156;28;20042;-50
2022/03/31 10:18:54;;;;;;;2.05;1.95;;;3.90;99.90;;;;;;4991548;28;20104;-50
2022/03/31 10:21:27;;;;;;;2.30;2.20;;;3.90;99.90;;;;;;4991381;28;20046;-51
2022/03/31 10:26:37;;;;;;;1.75;1.65;;;3.90;99.90;;;;;;4991110;28;20129;-54
2022/03/31 10:29:11;;;;;;;2.10;2.00;;;3.90;99.90;;;;;;4991453;28;20110;-52
2022/03/31 10:31:40;;;;;;;2.08;1.98;;;3.80;99.90;;;;;;4991324;28;20431;-50
2022/03/31 10:34:07;;;;;;;3.63;2.15;;;3.80;99.90;;;;;;4991668;28;20046;-52
2022/03/31 10:36:44;;;;;;;1.80;1.70;;;3.80;99.90;;;;;;4990584;28;20052;-54
2022/03/31 10:39:22;;;;;;;2.85;2.65;;;3.70;99.90;;;;;;4991644;28;20042;-50
2022/03/31 10:42:00;;;;;;;2.85;2.65;;;3.70;99.90;;;;;;4991324;28;20038;-52
2022/03/31 10:44:26;;;;;;;3.35;3.10;;;3.70;99.90;;;;;;4990811;28;20092;-52
2022/03/31 10:47:06;;;;;;;4.23;3.80;;;3.60;99.90;;;;;;4989958;28;20038;-54
2022/03/31 10:49:34;;;;;;;3.30;2.70;;;3.60;99.90;;;;;;4991215;28;20100;-54
2022/03/31 10:52:16;;;;;;;3.60;3.10;;;3.60;99.90;;;;;;4991229;28;20129;-54
2022/03/31 10:54:42;;;;;;;4.03;2.40;;;3.60;99.90;;;;;;4990705;28;20034;-52
2022/03/31 10:57:14;;;;;;;3.42;3.13;;;3.60;99.90;;;;;;4990647;28;20038;-50
2022/03/31 10:59:40;;;;;;;3.05;2.85;;;3.60;99.90;;;;;;4991110;28;20038;-54
2022/03/31 11:02:19;;;;;;;5.18;4.43;;;3.60;99.90;;;;;;4990819;28;20061;-54
2022/03/31 11:04:51;;;;;;;4.57;4.18;;;3.60;99.90;;;;;;4991003;28;20460;-50
2022/03/31 11:07:25;;;;;;;3.70;3.38;;;3.70;99.90;;;;;;4991314;28;20092;-52
2022/03/31 11:10:01;;;;;;;4.70;4.05;;;3.70;99.90;;;;;;4990506;28;20049;-50
2022/03/31 11:12:28;;;;;;;4.65;3.78;;;3.80;99.90;;;;;;4991029;28;20065;-50
2022/03/31 11:15:00;;;;;;;5.10;4.60;;;3.80;99.90;;;;;;4990492;28;20045;-50
2022/03/31 11:17:27;;;;;;;5.15;4.65;;;3.90;99.90;;;;;;4990537;28;20052;-50
2022/03/31 11:19:53;;;;;;;5.55;5.05;;;4.00;99.90;;;;;;4990763;28;20100;-49
2022/03/31 11:22:20;;;;;;;;;;;4.00;99.90;;;;;;4990486;28;20038;-49
2022/03/31 11:24:45;;;;;;;5.25;4.75;;;4.10;99.90;;;;;;4990462;28;19972;-50
2022/03/31 11:27:11;;;;;;;5.63;5.13;;;4.20;99.90;;;;;;4990531;28;20046;-49
2022/03/31 11:29:36;;;;;;;6.73;5.53;;;4.30;99.90;;;;;;4990655;28;20053;-49
2022/03/31 11:32:02;;;;;;;5.23;4.73;;;4.40;99.90;;;;;;4990487;28;20038;-49
2022/03/31 11:34:28;;;;;;;6.68;6.07;;;4.40;99.90;;;;;;4990715;28;20202;-51
2022/03/31 11:36:55;;;;;;;6.32;5.72;;;4.40;99.90;;;;;;4989769;28;20042;-50
2022/03/31 11:39:27;;;;;;;6.90;5.80;;;4.40;99.90;;;;;;4990550;28;20070;-50
2022/03/31 11:41:53;;;;;;;5.80;5.30;;;4.50;99.90;;;;;;4990616;28;20702;-50
2022/03/31 11:44:20;;;;;;;5.38;4.97;;;4.50;99.90;;;;;;4990450;28;20082;-50
2022/03/31 11:46:48;;;;;;;7.45;6.75;;;4.50;99.90;;;;;;4990247;28;20070;-52
2022/03/31 11:49:21;;;;;;;7.47;6.75;;;4.50;99.90;;;;;;4990114;28;20459;-51
2022/03/31 11:51:51;;;;;;;8.70;7.90;;;4.50;99.90;;;;;;4990813;28;20122;-50
2022/03/31 11:54:17;;;;;;;8.60;7.10;;;4.60;99.90;;;;;;4990368;28;20072;-52
2022/03/31 11:56:44;;;;;;;8.85;7.95;;;4.60;99.90;;;;;;4991550;28;20056;-50
2022/03/31 11:59:10;;;;;;;8.38;7.55;;;4.60;99.90;;;;;;4993894;28;20043;-49
2022/03/31 12:01:40;;;;;;;11.80;9.10;;;4.60;99.90;;;;;;4994543;28;20121;-49
2022/03/31 12:04:07;;;;;;;9.02;8.13;;;4.60;99.90;;;;;;4993459;28;20047;-50
2022/03/31 12:06:33;;;;;;;9.55;8.43;;;4.70;99.90;;;;;;4993839;28;20361;-50
2022/03/31 12:08:59;;;;;;;9.85;8.65;;;4.70;99.90;;;;;;4993825;28;20038;-51
2022/03/31 12:11:25;;;;;;;14.38;9.05;;;4.70;99.90;;;;;;4993935;28;20037;-52
2022/03/31 12:13:57;;;;;;;10.65;8.80;;;4.70;99.90;;;;;;4993758;28;20054;-50
2022/03/31 12:16:25;;;;;;;10.95;9.05;;;4.70;99.90;;;;;;4993696;28;20038;-53
2022/03/31 12:18:59;;;;;;;9.82;8.82;;;4.70;99.90;;;;;;4993765;28;20061;-50
2022/03/31 12:21:26;;;;;;;11.65;10.45;;;4.70;99.90;;;;;;4993769;28;20039;-51
2022/03/31 12:23:52;;;;;;;14.07;10.38;;;4.70;99.90;;;;;;4993653;28;20046;-49
2022/03/31 12:26:22;;;;;;;16.37;10.50;;;4.70;99.90;;;;;;4993535;28;20045;-50
2022/03/31 12:28:48;;;;;;;14.18;11.68;;;4.70;99.90;;;;;;4993561;28;20030;-49
2022/03/31 12:31:31;;;;;;;16.25;11.73;;;4.80;99.90;;;;;;4993590;28;20042;-50
2022/03/31 12:33:58;;;;;;;20.83;12.65;;;4.80;99.90;;;;;;4993768;28;20047;-51
2022/03/31 12:36:24;;;;;;;;;;;4.80;99.90;;;;;;4993715;28;20046;-54
2022/03/31 12:38:52;;;;;;;16.52;13.13;;;4.80;99.90;;;;;;4993198;28;19968;-54
2022/03/31 12:41:38;;;;;;;15.52;13.07;;;4.80;99.90;;;;;;4993283;28;20598;-52
2022/03/31 12:44:15;;;;;;;18.50;13.73;;;4.80;99.90;;;;;;4993257;28;20049;-54
2022/03/31 12:46:50;;;;;;;23.05;14.52;;;4.80;99.90;;;;;;4993206;28;20042;-50
2022/03/31 12:49:17;;;;;;;23.13;15.18;;;4.90;99.90;;;;;;4992360;28;20039;-54
2022/03/31 12:51:54;;;;;;;21.23;15.20;;;4.80;99.90;;;;;;4991322;28;20035;-52
2022/03/31 12:54:38;;;;;;;21.75;17.30;;;4.80;99.90;;;;;;4994455;28;20100;-54
2022/03/31 12:57:05;;;;;;;28.25;20.13;;;4.90;99.90;;;;;;4993844;28;20050;-51
2022/03/31 12:59:33;;;;;;;29.60;21.65;;;4.90;99.90;;;;;;4992976;28;20053;-50
2022/03/31 13:02:06;;;;;;;30.35;20.75;;;4.90;99.90;;;;;;4993126;28;20046;-54
2022/03/31 13:04:32;;;;;;;30.58;21.75;;;5.00;99.90;;;;;;4992728;28;20215;-54
2022/03/31 13:06:57;;;;;;;35.75;24.73;;;5.00;99.90;;;;;;4993202;28;20051;-54
2022/03/31 13:09:23;;;;;;;37.03;25.33;;;5.00;99.90;;;;;;4992198;28;20175;-54
2022/03/31 13:11:51;;;;;;;42.73;27.47;;;5.10;99.90;;;;;;4993208;28;20495;-54
2022/03/31 13:14:19;;;;;;;36.65;26.55;;;5.10;99.90;;;;;;4992952;28;20288;-54